createdAt,value
2022-08-10T00:01:53.351Z,99968.06
2022-08-10T00:04:23.515Z,99959.13
2022-08-10T00:06:53.903Z,99948.63
2022-08-10T00:09:23.645Z,99960.13
2022-08-10T00:11:52.666Z,99944.84
2022-08-10T00:14:21.326Z,99950.75
2022-08-10T00:16:51.325Z,99953.09
2022-08-10T00:19:19.882Z,99952.94
2022-08-10T00:21:48.847Z,99944.03
2022-08-10T00:24:17.554Z,99955.91
2022-08-10T00:27:52.727Z,99956.56
2022-08-10T00:29:34.756Z,99955.59
2022-08-10T00:32:05.135Z,99956.25
2022-08-10T00:34:35.076Z,99949.31
2022-08-10T00:37:03.626Z,99946.03
2022-08-10T00:39:36.080Z,99952.28
2022-08-10T00:42:08.274Z,99956.59
2022-08-10T00:44:38.749Z,99951.66
2022-08-10T00:47:36.233Z,99947.88
2022-08-10T00:49:59.931Z,99948.53
2022-08-10T00:52:31.050Z,99955.63
2022-08-10T00:55:00.991Z,99945.75
2022-08-10T00:57:30.185Z,99950.53
2022-08-10T01:00:00.281Z,99943.63
2022-08-10T01:02:32.869Z,99949.03
2022-08-10T01:05:06.320Z,99956.47
2022-08-10T01:07:54.048Z,99948.75
2022-08-10T01:10:36.260Z,99956.97
2022-08-10T01:13:13.315Z,99958.09
2022-08-10T01:15:55.369Z,99954.31
2022-08-10T01:18:44.287Z,99948.56
2022-08-10T01:22:01.043Z,99945.28
2022-08-10T01:25:12.806Z,99945.44
2022-08-10T01:27:52.881Z,99939.50
2022-08-10T01:30:28.252Z,99944.28
2022-08-10T01:33:08.516Z,99944.63
2022-08-10T01:35:43.801Z,99951.69
2022-08-10T01:38:18.336Z,99947.28
2022-08-10T01:40:52.952Z,99950.06
2022-08-10T01:43:22.834Z,99947.28
2022-08-10T01:45:58.036Z,99943.16
2022-08-10T01:48:29.354Z,99940.66
2022-08-10T01:51:08.720Z,99941.78
2022-08-10T01:53:42.985Z,99949.38
2022-08-10T01:56:14.396Z,99949.38
2022-08-10T01:58:45.199Z,99956.09
2022-08-10T02:01:18.759Z,99952.81
2022-08-10T02:04:03.830Z,99952.31
2022-08-10T02:06:38.462Z,99951.00
2022-08-10T02:09:09.108Z,99956.59
2022-08-10T02:12:05.501Z,99960.56
2022-08-10T02:14:33.256Z,99958.41
2022-08-10T02:17:09.142Z,99960.72
2022-08-10T02:20:03.150Z,99960.22
2022-08-10T02:22:36.308Z,99960.22
2022-08-10T02:25:40.705Z,99962.03
2022-08-10T02:28:01.265Z,99953.94
2022-08-10T02:30:31.412Z,99957.41
2022-08-10T02:33:03.787Z,99960.03
2022-08-10T02:35:54.460Z,99960.03
2022-08-10T02:38:58.845Z,99959.06
2022-08-10T02:45:14.849Z,99967.25
2022-08-10T02:45:29.920Z,99964.59
2022-08-10T02:47:29.365Z,99977.28
2022-08-10T02:50:23.767Z,99977.09
2022-08-10T02:53:01.357Z,99977.75
2022-08-10T02:55:41.647Z,99973.66
2022-08-10T02:58:18.349Z,99975.94
2022-08-10T03:00:52.212Z,99980.19
2022-08-10T03:03:26.352Z,99973.94
2022-08-10T03:06:01.727Z,99973.44
2022-08-10T03:08:36.384Z,99976.38
2022-08-10T03:11:07.869Z,99983.41
2022-08-10T03:13:37.331Z,99991.63
2022-08-10T03:16:06.533Z,99981.91
2022-08-10T03:18:36.014Z,99988.97
2022-08-10T03:21:11.413Z,99985.97
2022-08-10T03:23:42.531Z,99986.31
2022-08-10T03:26:12.793Z,99994.22
2022-08-10T03:28:42.812Z,99989.25
2022-08-10T03:31:11.961Z,99999.09
2022-08-10T03:33:43.463Z,99999.44
2022-08-10T03:36:43.365Z,100008.44
2022-08-10T03:39:02.343Z,100007.94
2022-08-10T03:41:36.614Z,99997.72
2022-08-10T03:44:08.611Z,100007.78
2022-08-10T03:46:40.826Z,100008.06
2022-08-10T03:49:10.556Z,100007.56
2022-08-10T03:51:40.829Z,100010.69
2022-08-10T03:54:10.060Z,100011.84
2022-08-10T03:56:41.102Z,100011.34
2022-08-10T03:59:13.632Z,100009.69
2022-08-10T04:02:43.822Z,100009.69
2022-08-10T04:04:31.916Z,100013.63
2022-08-10T04:07:03.723Z,100017.25
2022-08-10T04:09:54.414Z,100010.84
2022-08-10T04:12:23.447Z,100019.72
2022-08-10T04:14:53.266Z,100016.09
2022-08-10T04:17:56.266Z,100015.78
2022-08-10T04:20:20.485Z,100021.69
2022-08-10T04:22:54.329Z,100019.38
2022-08-10T04:25:25.226Z,100015.47
2022-08-10T04:27:55.204Z,100017.63
2022-08-10T04:30:24.339Z,100025.69
2022-08-10T04:32:59.813Z,100025.34
2022-08-10T04:35:31.082Z,100021.91
2022-08-10T04:38:03.224Z,100023.25
2022-08-10T04:40:31.946Z,100027.06
2022-08-10T04:43:07.492Z,100028.59
2022-08-10T04:45:49.823Z,100035.66
2022-08-10T04:48:43.325Z,100026.81
2022-08-10T04:51:19.003Z,100031.97
2022-08-10T04:54:05.184Z,100027.91
2022-08-10T04:56:40.357Z,100029.91
2022-08-10T04:59:11.737Z,100031.41
2022-08-10T05:02:27.881Z,100027.31
2022-08-10T05:04:33.765Z,100026.34
2022-08-10T05:07:09.457Z,100034.25
2022-08-10T05:10:01.662Z,100028.19
2022-08-10T05:12:29.543Z,100034.63
2022-08-10T05:14:58.156Z,100034.97
2022-08-10T05:17:26.557Z,100032.00
2022-08-10T05:20:03.278Z,100030.72
2022-08-10T05:22:38.321Z,100034.69
2022-08-10T05:25:11.692Z,100026.28
2022-08-10T05:27:41.344Z,100032.41
2022-08-10T05:30:13.807Z,100032.41
2022-08-10T05:32:56.658Z,100028.94
2022-08-10T05:35:56.286Z,100022.69
2022-08-10T05:38:19.229Z,100024.19
2022-08-10T05:40:50.779Z,100024.00
2022-08-10T05:43:21.849Z,100027.75
2022-08-10T05:46:17.288Z,100027.22
2022-08-10T05:48:59.513Z,100027.81
2022-08-10T05:51:30.794Z,100032.41
2022-08-10T05:54:04.461Z,100027.41
2022-08-10T05:56:56.100Z,100031.94
2022-08-10T06:00:34.921Z,100026.09
2022-08-10T06:02:31.545Z,100021.25
2022-08-10T06:05:08.371Z,100023.69
2022-08-10T06:07:43.824Z,100022.94
2022-08-10T06:10:29.980Z,100023.81
2022-08-10T06:13:30.757Z,100024.84
2022-08-10T06:16:07.282Z,100025.38
2022-08-10T06:18:37.140Z,100018.53
2022-08-10T06:21:06.631Z,100024.78
2022-08-10T06:23:36.208Z,100024.09
2022-08-10T06:26:11.504Z,100020.22
2022-08-10T06:29:02.006Z,100019.81
2022-08-10T06:31:48.458Z,100017.50
2022-08-10T06:34:23.702Z,100027.59
2022-08-10T06:36:54.215Z,100016.28
2022-08-10T06:39:39.301Z,100006.91
2022-08-10T06:42:18.348Z,100016.44
2022-08-10T06:45:00.290Z,100014.19
2022-08-10T06:47:38.462Z,100016.91
2022-08-10T06:50:15.151Z,100016.31
2022-08-10T06:53:04.594Z,100017.50
2022-08-10T06:55:49.775Z,100019.00
2022-08-10T06:58:27.939Z,100020.88
2022-08-10T07:00:58.698Z,100020.44
2022-08-10T07:03:36.180Z,100021.94
2022-08-10T07:06:07.678Z,100025.91
2022-08-10T07:08:37.878Z,100017.31
2022-08-10T07:11:11.985Z,100022.00
2022-08-10T07:14:15.731Z,100023.81
2022-08-10T07:16:33.042Z,100023.81
2022-08-10T07:19:02.810Z,100025.06
2022-08-10T07:21:32.456Z,100021.00
2022-08-10T07:24:03.118Z,100018.56
2022-08-10T07:26:33.378Z,100006.78
2022-08-10T07:29:03.320Z,100016.72
2022-08-10T07:31:57.273Z,100008.88
2022-08-10T07:34:29.282Z,100020.47
2022-08-10T07:37:05.054Z,100007.38
2022-08-10T07:40:02.909Z,100011.16
2022-08-10T07:42:31.668Z,100010.63
2022-08-10T07:45:00.920Z,100011.56
2022-08-10T07:47:52.357Z,100010.47
2022-08-10T07:50:26.131Z,100008.69
2022-08-10T07:52:59.675Z,100011.34
2022-08-10T07:56:04.595Z,100008.59
2022-08-10T07:58:19.662Z,100008.59
2022-08-10T08:00:49.427Z,100009.88
2022-08-10T08:03:25.874Z,99999.38
2022-08-10T08:06:02.854Z,100006.81
2022-08-10T08:08:34.701Z,100004.44
2022-08-10T08:11:05.492Z,100007.22
2022-08-10T08:13:35.154Z,100004.81
2022-08-10T08:16:18.138Z,100009.38
2022-08-10T08:19:23.587Z,99996.97
2022-08-10T08:24:04.585Z,99994.03
2022-08-10T08:24:36.910Z,99993.47
2022-08-10T08:27:07.875Z,99999.16
2022-08-10T08:29:42.072Z,99994.78
2022-08-10T08:32:11.967Z,99994.09
2022-08-10T08:34:45.257Z,99989.72
2022-08-10T08:38:27.279Z,99993.72
2022-08-10T08:40:11.722Z,99991.97
2022-08-10T08:43:24.129Z,99993.06
2022-08-10T08:46:19.670Z,99986.31
2022-08-10T08:49:10.796Z,99994.63
2022-08-10T08:52:09.675Z,99985.53
2022-08-10T08:55:04.295Z,99989.63
2022-08-10T08:58:05.259Z,99986.94
2022-08-10T09:00:45.115Z,99987.94
2022-08-10T09:03:48.279Z,99983.25
2022-08-10T09:06:35.772Z,99981.47
2022-08-10T09:09:36.512Z,99975.56
2022-08-10T09:12:23.726Z,99993.16
2022-08-10T09:15:02.026Z,99985.53
2022-08-10T09:17:43.388Z,99980.84
2022-08-10T09:20:20.431Z,99975.75
2022-08-10T09:22:57.935Z,99974.13
2022-08-10T09:25:35.807Z,99973.78
2022-08-10T09:28:08.507Z,99966.13
2022-08-10T09:31:10.788Z,99974.59
2022-08-10T09:36:20.692Z,99974.59
2022-08-10T09:36:51.780Z,99967.69
2022-08-10T09:40:12.725Z,99963.19
2022-08-10T09:42:33.632Z,99959.50
2022-08-10T09:45:14.089Z,99961.94
2022-08-10T09:48:02.887Z,99953.44
2022-08-10T09:51:28.031Z,99961.09
2022-08-10T09:53:45.257Z,99958.34
2022-08-10T09:56:29.396Z,99951.13
2022-08-10T09:59:27.175Z,99945.06
2022-08-10T10:02:15.950Z,99940.59
2022-08-10T10:04:55.345Z,99947.53
2022-08-10T10:07:28.647Z,99943.56
2022-08-10T10:10:04.627Z,99942.41
2022-08-10T10:12:45.990Z,99942.03
2022-08-10T10:15:32.764Z,99925.03
2022-08-10T10:18:25.068Z,99930.25
2022-08-10T10:21:04.318Z,99927.09
2022-08-10T10:24:19.775Z,99918.97
2022-08-10T10:26:51.305Z,99912.16
2022-08-10T10:29:56.815Z,99915.38
2022-08-10T10:32:37.067Z,99919.47
2022-08-10T10:35:24.616Z,99919.19
2022-08-10T10:38:01.615Z,99903.53
2022-08-10T10:40:43.375Z,99897.84
2022-08-10T10:43:29.243Z,99902.41
2022-08-10T10:46:09.693Z,99895.19
2022-08-10T10:48:49.306Z,99895.00
2022-08-10T10:51:27.545Z,99905.66
2022-08-10T10:54:10.611Z,99901.63
2022-08-10T10:56:53.005Z,99899.25
2022-08-10T10:59:55.508Z,99899.09
2022-08-10T11:02:44.925Z,99891.84
2022-08-10T11:05:28.391Z,99886.34
2022-08-10T11:08:02.759Z,99890.41
2022-08-10T11:10:46.874Z,99889.00
2022-08-10T11:14:27.565Z,99887.38
2022-08-10T11:16:25.830Z,99876.59
2022-08-10T11:19:08.797Z,99872.63
2022-08-10T11:21:58.534Z,99878.72
2022-08-10T11:24:48.540Z,99868.53
2022-08-10T11:27:30.814Z,99880.41
2022-08-10T11:30:06.504Z,99869.88
2022-08-10T11:32:48.479Z,99871.34
2022-08-10T11:35:31.602Z,99875.25
2022-08-10T11:38:31.880Z,99884.00
2022-08-10T11:41:14.686Z,99882.41
2022-08-10T11:44:10.176Z,99880.66
2022-08-10T11:46:53.081Z,99864.19
2022-08-10T11:49:31.119Z,99875.06
2022-08-10T11:52:06.044Z,99865.59
2022-08-10T11:54:43.658Z,99861.94
2022-08-10T11:57:13.712Z,99863.31
2022-08-10T11:59:59.659Z,99861.13
2022-08-10T12:02:35.085Z,99857.31
2022-08-10T12:05:10.509Z,99852.66
2022-08-10T12:10:04.170Z,99856.63
2022-08-10T12:10:40.621Z,99847.13
2022-08-10T12:13:13.822Z,99852.53
2022-08-10T12:15:55.859Z,99863.13
2022-08-10T12:18:31.868Z,99856.47
2022-08-10T12:21:09.735Z,99845.34
2022-08-10T12:24:03.945Z,99847.56
2022-08-10T12:26:50.197Z,99835.59
2022-08-10T12:29:29.089Z,99844.09
2022-08-10T12:32:05.978Z,99834.63
2022-08-10T12:34:48.644Z,99833.22
2022-08-10T12:37:25.725Z,99831.88
2022-08-10T12:40:33.844Z,99852.97
2022-08-10T12:44:03.688Z,99839.81
2022-08-10T12:46:06.847Z,99838.44
2022-08-10T12:48:42.314Z,99842.69
2022-08-10T12:51:19.884Z,99831.66
2022-08-10T12:53:56.711Z,99820.00
2022-08-10T12:56:28.655Z,99822.22
2022-08-10T12:59:01.787Z,99810.97
2022-08-10T13:02:07.757Z,99814.03
2022-08-10T13:04:30.886Z,99813.47
2022-08-10T13:07:02.587Z,99810.72
2022-08-10T13:09:32.538Z,99807.91
2022-08-10T13:12:39.288Z,99805.56
2022-08-10T13:15:45.647Z,99797.97
2022-08-10T13:17:59.087Z,99795.06
2022-08-10T13:20:36.273Z,99795.50
2022-08-10T13:23:11.222Z,99791.13
2022-08-10T13:25:43.173Z,99789.34
2022-08-10T13:28:35.894Z,99784.56
2022-08-10T13:31:16.937Z,99790.47
2022-08-10T13:34:38.944Z,99791.28
2022-08-10T13:36:41.914Z,99780.31
2022-08-10T13:39:12.314Z,99780.59
2022-08-10T13:41:43.516Z,99781.72
2022-08-10T13:44:17.287Z,99777.22
2022-08-10T13:46:54.292Z,99769.28
2022-08-10T13:49:23.097Z,99768.47
2022-08-10T13:51:58.102Z,99766.63
2022-08-10T13:54:37.471Z,99759.19
2022-08-10T13:57:06.925Z,99767.38
2022-08-10T14:00:36.328Z,99761.72
2022-08-10T14:02:32.470Z,99768.41
2022-08-10T14:05:02.731Z,99764.34
2022-08-10T14:07:33.318Z,99753.59
2022-08-10T14:10:07.479Z,99740.50
2022-08-10T14:12:41.984Z,99744.66
2022-08-10T14:15:15.514Z,99745.53
2022-08-10T14:17:50.916Z,99737.34
2022-08-10T14:20:21.913Z,99742.06
2022-08-10T14:22:50.730Z,99741.56
2022-08-10T14:25:19.273Z,99751.78
2022-08-10T14:28:02.855Z,99748.34
2022-08-10T14:30:34.932Z,99742.94
2022-08-10T14:33:05.642Z,99742.25
2022-08-10T14:36:18.537Z,99737.84
2022-08-10T14:38:33.118Z,99737.00
2022-08-10T14:41:05.888Z,99735.56
2022-08-10T14:43:40.493Z,99730.94
2022-08-10T14:46:19.615Z,99731.53
2022-08-10T14:48:52.333Z,99731.84
2022-08-10T14:51:27.668Z,99731.16
2022-08-10T14:54:15.974Z,99732.22
2022-08-10T14:56:48.944Z,99723.63
2022-08-10T14:59:19.389Z,99723.72
2022-08-10T15:02:00.001Z,99714.47
2022-08-10T15:04:44.211Z,99716.75
2022-08-10T15:07:20.874Z,99712.63
2022-08-10T15:10:01.401Z,99724.66
2022-08-10T15:12:35.271Z,99728.19
2022-08-10T15:15:07.447Z,99719.03
2022-08-10T15:17:42.157Z,99719.34
2022-08-10T15:20:22.070Z,99720.28
2022-08-10T15:22:53.889Z,99719.59
2022-08-10T15:25:26.787Z,99706.09
2022-08-10T15:28:04.985Z,99721.81
2022-08-10T15:30:40.880Z,99709.00
2022-08-10T15:34:03.307Z,99703.81
2022-08-10T15:36:40.294Z,99702.13
2022-08-10T15:39:59.133Z,99699.72
2022-08-10T15:42:09.719Z,99710.66
2022-08-10T15:44:42.034Z,99702.16
2022-08-10T15:47:21.026Z,99711.13
2022-08-10T15:49:58.120Z,99702.72
2022-08-10T15:52:39.467Z,99689.22
2022-08-10T15:55:42.796Z,99692.69
2022-08-10T15:58:38.860Z,99698.00
2022-08-10T16:02:13.027Z,99699.97
2022-08-10T16:04:09.064Z,99692.91
2022-08-10T16:06:47.979Z,99695.94
2022-08-10T16:10:24.957Z,99701.44
2022-08-10T16:12:29.137Z,99687.72
2022-08-10T16:15:00.847Z,99697.63
2022-08-10T16:17:30.931Z,99699.03
2022-08-10T16:20:28.056Z,99699.53
2022-08-10T16:23:04.997Z,99709.03
2022-08-10T16:25:49.763Z,99705.81
2022-08-10T16:28:24.097Z,99703.03
2022-08-10T16:30:56.865Z,99703.47
2022-08-10T16:33:53.498Z,99704.72
2022-08-10T16:36:20.807Z,99708.78
2022-08-10T16:38:52.195Z,99714.44
2022-08-10T16:42:04.647Z,99719.69
2022-08-10T16:44:19.537Z,99711.16
2022-08-10T16:46:49.080Z,99717.22
2022-08-10T16:49:19.103Z,99714.31
2022-08-10T16:51:50.593Z,99703.28
2022-08-10T16:54:27.560Z,99706.09
2022-08-10T16:57:02.476Z,99711.25
2022-08-10T16:59:35.082Z,99715.22
2022-08-10T17:02:04.325Z,99713.94
2022-08-10T17:04:35.031Z,99712.97
2022-08-10T17:07:09.361Z,99715.72
2022-08-10T17:09:40.601Z,99721.69
2022-08-10T17:12:14.193Z,99715.88
2022-08-10T17:14:44.381Z,99714.94
2022-08-10T17:17:21.667Z,99715.22
2022-08-10T17:19:51.977Z,99720.41
2022-08-10T17:22:23.235Z,99728.41
2022-08-10T17:24:58.688Z,99719.38
2022-08-10T17:28:03.970Z,99729.75
2022-08-10T17:30:33.756Z,99723.13
2022-08-10T17:33:07.808Z,99732.78
2022-08-10T17:35:38.926Z,99729.41
2022-08-10T17:38:12.049Z,99732.91
2022-08-10T17:40:47.352Z,99735.19
2022-08-10T17:44:00.938Z,99739.13
2022-08-10T17:46:14.418Z,99745.47
2022-08-10T17:48:43.635Z,99750.59
2022-08-10T17:51:16.153Z,99754.09
2022-08-10T17:53:48.664Z,99753.94
2022-08-10T17:56:18.358Z,99747.34
2022-08-10T17:58:52.715Z,99751.63
2022-08-10T18:01:41.598Z,99753.53
2022-08-10T18:04:20.099Z,99756.53
2022-08-10T18:06:54.507Z,99752.34
2022-08-10T18:09:31.792Z,99754.22
2022-08-10T18:12:10.100Z,99752.47
2022-08-10T18:14:44.153Z,99758.34
2022-08-10T18:17:18.011Z,99769.50
2022-08-10T18:19:52.894Z,99762.06
2022-08-10T18:22:22.885Z,99772.44
2022-08-10T18:24:53.879Z,99760.53
2022-08-10T18:27:24.093Z,99768.88
2022-08-10T18:30:15.970Z,99768.66
2022-08-10T18:32:51.191Z,99771.28
2022-08-10T18:35:21.631Z,99778.00
2022-08-10T18:37:52.984Z,99771.00
2022-08-10T18:40:21.672Z,99773.66
2022-08-10T18:44:05.797Z,99777.16
2022-08-10T18:45:59.698Z,99775.72
2022-08-10T18:48:40.012Z,99791.31
2022-08-10T18:51:10.877Z,99792.03
2022-08-10T18:53:48.305Z,99794.66
2022-08-10T18:56:41.763Z,99795.69
2022-08-10T19:00:07.581Z,99792.25
2022-08-10T19:03:19.077Z,99795.59
2022-08-10T19:06:11.260Z,99807.66
2022-08-10T19:09:46.582Z,99802.16
2022-08-10T19:12:29.953Z,99798.81
2022-08-10T19:15:14.748Z,99800.25
2022-08-10T19:18:03.795Z,99802.16
2022-08-10T19:20:42.576Z,99802.41
2022-08-10T19:23:47.668Z,99798.69
2022-08-10T19:26:43.861Z,99804.13
2022-08-10T19:30:10.900Z,99803.09
2022-08-10T19:32:31.465Z,99804.19
2022-08-10T19:35:09.089Z,99802.13
2022-08-10T19:38:00.678Z,99806.03
2022-08-10T19:40:43.441Z,99812.75
2022-08-10T19:43:30.909Z,99817.09
2022-08-10T19:46:28.108Z,99812.06
2022-08-10T19:49:04.762Z,99814.41
2022-08-10T19:51:57.493Z,99813.03
2022-08-10T19:54:39.529Z,99811.75
2022-08-10T19:57:14.772Z,99812.13
2022-08-10T20:00:17.401Z,99805.91
2022-08-10T20:02:58.379Z,99808.63
2022-08-10T20:05:34.042Z,99815.78
2022-08-10T20:08:10.801Z,99809.69
2022-08-10T20:10:49.847Z,99816.88
2022-08-10T20:13:28.785Z,99811.13
2022-08-10T20:16:09.211Z,99809.03
2022-08-10T20:18:43.174Z,99806.56
2022-08-10T20:21:17.575Z,99810.91
2022-08-10T20:23:55.689Z,99814.78
2022-08-10T20:26:30.432Z,99817.50
2022-08-10T20:29:16.210Z,99826.66
2022-08-10T20:31:55.013Z,99818.91
2022-08-10T20:34:28.764Z,99825.28
2022-08-10T20:37:08.107Z,99814.63
2022-08-10T20:39:49.597Z,99824.59
2022-08-10T20:42:28.451Z,99816.03
2022-08-10T20:45:07.171Z,99817.09
2022-08-10T20:47:54.548Z,99817.75
2022-08-10T20:50:34.785Z,99826.94
2022-08-10T20:53:13.645Z,99817.56
2022-08-10T20:55:56.244Z,99820.63
2022-08-10T20:58:43.878Z,99819.78
2022-08-10T21:01:17.837Z,99820.47
2022-08-10T21:04:13.131Z,99817.56
2022-08-10T21:07:33.082Z,99822.13
2022-08-10T21:10:10.118Z,99814.88
2022-08-10T21:12:59.304Z,99819.09
2022-08-10T21:15:58.958Z,99820.63
2022-08-10T21:18:58.480Z,99824.47
2022-08-10T21:25:41.674Z,99830.34
2022-08-10T21:25:42.284Z,99817.94
2022-08-10T21:28:16.692Z,99824.47
2022-08-10T21:31:21.955Z,99830.00
2022-08-10T21:34:32.618Z,99816.97
2022-08-10T21:37:07.925Z,99825.06
2022-08-10T21:39:58.313Z,99828.78
2022-08-10T21:43:01.967Z,99828.31
2022-08-10T21:46:03.902Z,99822.56
2022-08-10T21:49:05.247Z,99823.59
2022-08-10T21:52:01.922Z,99831.56
2022-08-10T21:55:03.406Z,99822.19
2022-08-10T21:58:06.609Z,99821.59
2022-08-10T22:04:09.673Z,99819.34
2022-08-10T22:06:59.589Z,99824.88
2022-08-10T22:09:51.597Z,99826.03
2022-08-10T22:12:47.031Z,99820.97
2022-08-10T22:15:42.486Z,99823.78
2022-08-10T22:19:01.787Z,99827.28
2022-08-10T22:22:07.911Z,99820.25
2022-08-10T22:25:24.800Z,99813.69
2022-08-10T22:28:17.686Z,99806.41
2022-08-10T22:34:33.204Z,99811.63
2022-08-10T22:37:42.007Z,99813.47
2022-08-10T22:40:34.339Z,99812.16
2022-08-10T22:43:36.168Z,99816.50
2022-08-10T22:46:32.767Z,99813.91
2022-08-10T22:49:00.213Z,99820.69
2022-08-10T22:51:54.555Z,99817.59
2022-08-10T22:54:51.830Z,99814.78
2022-08-10T22:57:38.720Z,99818.31
2022-08-10T23:00:16.330Z,99814.53
2022-08-10T23:02:56.329Z,99814.41
2022-08-10T23:05:34.731Z,99808.63
2022-08-10T23:08:29.689Z,99809.00
2022-08-10T23:11:05.337Z,99809.66
2022-08-10T23:13:38.820Z,99799.63
2022-08-10T23:16:33.328Z,99809.53
2022-08-10T23:19:13.302Z,99801.81
2022-08-10T23:22:03.921Z,99808.91
2022-08-10T23:24:40.719Z,99808.44
2022-08-10T23:27:37.952Z,99806.00
2022-08-10T23:30:09.266Z,99805.50
2022-08-10T23:32:42.942Z,99801.41
2022-08-10T23:36:31.269Z,99802.91
2022-08-10T23:38:06.970Z,99795.63
2022-08-10T23:40:37.870Z,99803.56
2022-08-10T23:43:08.814Z,99807.03
2022-08-10T23:45:53.021Z,99803.06
2022-08-10T23:48:29.579Z,99811.00
2022-08-10T23:51:03.585Z,99800.16
2022-08-10T23:53:48.724Z,99803.28
2022-08-10T23:56:20.544Z,99802.44
2022-08-10T23:58:55.048Z,99805.13
